Time;durP1;ratioP1;P1;durP2;ratioP2;P2;SDS_P1;SDS_P2;PMS_P1;PMS_P2;Temp;Humidity;BMP_temperature;BMP_pressure;BME280_temperature;BME280_humidity;BME280_pressure;Samples;Min_cycle;Max_cycle;Signal;HPM_P1;HPM_P2
2021/12/09 00:01:41;;;;;;;11.15;6.97;;;1.90;99.90;;;;;;5073262;28;20059;-70
2021/12/09 00:04:12;;;;;;;13.65;7.55;;;1.90;99.90;;;;;;5079740;28;20024;-69
2021/12/09 00:06:39;;;;;;;13.93;6.97;;;1.90;99.90;;;;;;5093611;28;20044;-70
2021/12/09 00:09:08;;;;;;;14.25;7.35;;;1.90;99.90;;;;;;5093708;28;20075;-70
2021/12/09 00:11:42;;;;;;;13.55;7.40;;;1.80;99.90;;;;;;5093930;28;20055;-70
2021/12/09 00:14:09;;;;;;;16.55;7.97;;;1.90;99.90;;;;;;5092620;28;20044;-70
2021/12/09 00:16:35;;;;;;;16.02;8.07;;;1.80;99.90;;;;;;5093059;28;20048;-70
2021/12/09 00:19:00;;;;;;;19.42;8.20;;;1.80;99.90;;;;;;5092462;28;20143;-70
2021/12/09 00:21:26;;;;;;;14.23;8.15;;;1.90;99.90;;;;;;5092555;28;20127;-70
2021/12/09 00:23:52;;;;;;;18.33;8.13;;;1.90;99.90;;;;;;5093552;28;20111;-70
2021/12/09 00:26:17;;;;;;;13.00;7.68;;;1.90;99.90;;;;;;5093317;28;20036;-69
2021/12/09 00:28:43;;;;;;;14.93;7.65;;;1.90;99.90;;;;;;5092765;28;20052;-70
2021/12/09 00:31:09;;;;;;;15.32;7.95;;;1.90;99.90;;;;;;5093167;28;20108;-70
2021/12/09 00:33:41;;;;;;;12.95;7.63;;;1.90;99.90;;;;;;5093397;28;20048;-70
2021/12/09 00:36:07;;;;;;;15.50;7.88;;;1.90;99.90;;;;;;5093227;28;20048;-69
2021/12/09 00:38:41;;;;;;;14.82;8.10;;;1.90;99.90;;;;;;5093481;28;20047;-70
2021/12/09 00:41:10;;;;;;;19.70;8.10;;;2.00;99.90;;;;;;5096800;28;20130;-70
2021/12/09 00:43:36;;;;;;;14.15;7.95;;;2.00;99.90;;;;;;5097352;28;20040;-70
2021/12/09 00:46:03;;;;;;;15.65;7.68;;;2.00;99.90;;;;;;5097310;28;20040;-70
2021/12/09 00:48:30;;;;;;;16.40;7.78;;;2.00;99.90;;;;;;5097414;28;20040;-70
2021/12/09 00:50:57;;;;;;;16.52;8.20;;;2.00;99.90;;;;;;5097658;28;20153;-70
2021/12/09 00:53:23;;;;;;;14.55;8.40;;;2.10;99.90;;;;;;5097481;28;20043;-70
2021/12/09 00:55:49;;;;;;;15.77;8.40;;;2.00;99.90;;;;;;5096752;28;20048;-70
2021/12/09 00:58:15;;;;;;;14.55;8.32;;;2.00;99.90;;;;;;5093761;28;20043;-70
2021/12/09 01:00:41;;;;;;;15.98;8.00;;;2.00;99.90;;;;;;5076974;28;20036;-69
2021/12/09 01:03:06;;;;;;;16.23;8.60;;;2.10;99.90;;;;;;5077131;28;20058;-69
2021/12/09 01:05:32;;;;;;;15.07;8.38;;;2.00;99.90;;;;;;5094195;28;20040;-69
2021/12/09 01:07:58;;;;;;;18.73;8.65;;;2.10;99.90;;;;;;5097110;28;20127;-69
2021/12/09 01:10:24;;;;;;;14.82;7.60;;;2.10;99.90;;;;;;5096975;28;20123;-70
2021/12/09 01:12:50;;;;;;;17.33;7.75;;;2.00;99.90;;;;;;5097236;28;20336;-70
2021/12/09 01:15:18;;;;;;;13.75;7.93;;;2.00;99.90;;;;;;5096996;28;20040;-70
2021/12/09 01:17:46;;;;;;;14.98;8.73;;;2.10;99.90;;;;;;5096101;28;20052;-70
2021/12/09 01:20:14;;;;;;;15.27;8.45;;;2.10;99.90;;;;;;5096982;28;20043;-70
2021/12/09 01:22:43;;;;;;;14.80;8.48;;;2.10;99.90;;;;;;5096850;28;20093;-69
2021/12/09 01:25:12;;;;;;;17.63;8.57;;;2.10;99.90;;;;;;5096629;28;20036;-70
2021/12/09 01:27:41;;;;;;;15.65;8.70;;;2.00;99.90;;;;;;5095292;28;20044;-70
2021/12/09 01:30:13;;;;;;;14.35;8.55;;;2.00;99.90;;;;;;5096796;28;20101;-70
2021/12/09 01:32:42;;;;;;;15.70;8.70;;;2.10;99.90;;;;;;5096626;28;20052;-70
2021/12/09 01:35:09;;;;;;;15.25;8.35;;;2.00;99.90;;;;;;5096626;28;20090;-70
2021/12/09 01:37:35;;;;;;;14.23;7.78;;;2.10;99.90;;;;;;5096189;28;20052;-71
2021/12/09 01:40:03;;;;;;;14.50;8.77;;;2.00;99.90;;;;;;5096503;28;20039;-70
2021/12/09 01:42:29;;;;;;;17.48;9.25;;;2.00;99.90;;;;;;5096445;28;20107;-70
2021/12/09 01:44:54;;;;;;;17.10;8.43;;;2.00;99.90;;;;;;5095917;28;20835;-70
2021/12/09 01:47:21;;;;;;;15.93;8.75;;;2.00;99.90;;;;;;5096196;28;20046;-70
2021/12/09 01:49:46;;;;;;;16.23;8.85;;;2.10;99.90;;;;;;5096508;28;20036;-70
2021/12/09 01:52:12;;;;;;;15.85;8.80;;;2.00;99.90;;;;;;5095719;28;20335;-70
2021/12/09 01:54:38;;;;;;;18.45;9.10;;;2.00;99.90;;;;;;5095721;28;20514;-70
2021/12/09 01:57:05;;;;;;;17.20;9.18;;;2.00;99.90;;;;;;5096001;28;20040;-70
2021/12/09 01:59:31;;;;;;;17.60;8.80;;;2.00;99.90;;;;;;5082039;28;20413;-69
2021/12/09 02:01:56;;;;;;;15.20;9.45;;;2.00;99.90;;;;;;5075473;28;20036;-70
2021/12/09 02:04:22;;;;;;;14.38;9.80;;;2.00;99.90;;;;;;5083101;28;20031;-70
2021/12/09 02:06:48;;;;;;;17.45;9.10;;;2.00;99.90;;;;;;5095922;28;20024;-70
2021/12/09 02:09:15;;;;;;;12.50;8.50;;;1.90;99.90;;;;;;5095697;28;20457;-70
2021/12/09 02:11:42;;;;;;;17.75;9.38;;;1.90;99.90;;;;;;5095916;28;20437;-70
2021/12/09 02:14:08;;;;;;;15.93;9.35;;;1.90;99.90;;;;;;5094350;28;20381;-70
2021/12/09 02:16:34;;;;;;;19.38;8.93;;;1.90;99.90;;;;;;5095185;28;20131;-70
2021/12/09 02:19:01;;;;;;;17.38;9.38;;;1.90;99.90;;;;;;5095626;28;20055;-70
2021/12/09 02:21:29;;;;;;;17.10;9.55;;;1.90;99.90;;;;;;5095571;28;20460;-69
2021/12/09 02:24:01;;;;;;;14.10;8.40;;;1.90;99.90;;;;;;5095517;28;20097;-70
2021/12/09 02:26:30;;;;;;;17.08;8.93;;;1.90;99.90;;;;;;5095281;28;20056;-70
2021/12/09 02:28:57;;;;;;;16.65;8.80;;;1.90;99.90;;;;;;5095657;28;20044;-70
2021/12/09 02:31:24;;;;;;;16.73;9.50;;;1.90;99.90;;;;;;5095407;28;20101;-70
2021/12/09 02:33:50;;;;;;;14.43;8.90;;;1.90;99.90;;;;;;5095433;28;20391;-70
2021/12/09 02:36:15;;;;;;;13.50;8.73;;;1.90;99.90;;;;;;5095045;28;20073;-70
2021/12/09 02:38:44;;;;;;;17.63;9.50;;;1.80;99.90;;;;;;5094855;28;20044;-70
2021/12/09 02:41:15;;;;;;;17.55;9.52;;;1.90;99.90;;;;;;5095498;28;20051;-70
2021/12/09 02:43:42;;;;;;;16.83;9.48;;;1.90;99.90;;;;;;5095228;28;20044;-69
2021/12/09 02:46:08;;;;;;;14.48;8.82;;;1.90;99.90;;;;;;5094700;28;20044;-70
2021/12/09 02:48:35;;;;;;;17.65;9.68;;;1.80;99.90;;;;;;5094908;28;20444;-70
2021/12/09 02:51:03;;;;;;;15.95;9.05;;;1.80;99.90;;;;;;5095218;28;20062;-69
2021/12/09 02:53:28;;;;;;;17.88;9.07;;;1.80;99.90;;;;;;5095108;28;20040;-70
2021/12/09 02:55:54;;;;;;;15.13;9.27;;;1.80;99.90;;;;;;5094339;28;20368;-70
2021/12/09 02:58:20;;;;;;;17.65;9.85;;;1.80;99.90;;;;;;5091077;28;20054;-70
2021/12/09 03:01:00;;;;;;;13.82;9.20;;;1.80;99.90;;;;;;5074761;28;20036;-70
2021/12/09 03:03:26;;;;;;;15.82;9.18;;;1.80;99.90;;;;;;5073848;28;20044;-70
2021/12/09 03:05:56;;;;;;;18.52;8.93;;;1.70;99.90;;;;;;5093364;28;20044;-69
2021/12/09 03:08:33;;;;;;;20.80;9.95;;;1.80;99.90;;;;;;5094901;28;20040;-70
2021/12/09 03:11:21;;;;;;;14.50;8.88;;;1.70;99.90;;;;;;5094524;28;20468;-70
2021/12/09 03:13:49;;;;;;;13.88;9.23;;;1.70;99.90;;;;;;5094716;28;20055;-70
2021/12/09 03:16:15;;;;;;;16.85;9.95;;;1.70;99.90;;;;;;5094056;28;20050;-68
2021/12/09 03:18:45;;;;;;;15.40;8.85;;;1.70;99.90;;;;;;5094576;28;20055;-69
2021/12/09 03:21:25;;;;;;;15.30;8.30;;;1.70;99.90;;;;;;5094880;28;20040;-70
2021/12/09 03:23:52;;;;;;;16.08;8.93;;;1.70;99.90;;;;;;5094432;28;20036;-71
2021/12/09 03:26:25;;;;;;;19.20;9.40;;;1.70;99.90;;;;;;5094111;28;20116;-70
2021/12/09 03:28:55;;;;;;;16.80;9.20;;;1.70;99.90;;;;;;5094338;28;20075;-70
2021/12/09 03:31:21;;;;;;;14.20;8.90;;;1.60;99.90;;;;;;5094022;28;20468;-71
2021/12/09 03:33:47;;;;;;;18.60;9.65;;;1.60;99.90;;;;;;5094322;28;20035;-70
2021/12/09 03:36:13;;;;;;;15.43;9.23;;;1.60;99.90;;;;;;5093917;28;20039;-70
2021/12/09 03:38:40;;;;;;;17.98;9.40;;;1.60;99.90;;;;;;5094121;28;20055;-71
2021/12/09 03:41:06;;;;;;;17.27;9.25;;;1.70;99.90;;;;;;5093978;28;20032;-70
2021/12/09 03:43:32;;;;;;;14.38;8.70;;;1.60;99.90;;;;;;5094140;28;20044;-70
2021/12/09 03:45:58;;;;;;;14.20;8.93;;;1.60;99.90;;;;;;5093340;28;20040;-71
2021/12/09 03:48:27;;;;;;;17.77;9.93;;;1.60;99.90;;;;;;5094190;28;20040;-70
2021/12/09 03:50:55;;;;;;;13.73;9.00;;;1.60;99.90;;;;;;5093650;28;20435;-70
2021/12/09 03:53:21;;;;;;;16.17;8.80;;;1.60;99.90;;;;;;5094076;28;20035;-70
2021/12/09 03:55:48;;;;;;;20.30;9.38;;;1.60;99.90;;;;;;5093613;28;20342;-70
2021/12/09 03:58:14;;;;;;;16.40;8.75;;;1.60;99.90;;;;;;5091014;28;20105;-70
2021/12/09 04:00:40;;;;;;;18.27;10.02;;;1.60;99.90;;;;;;5073626;28;20040;-70
2021/12/09 04:03:06;;;;;;;15.27;8.68;;;1.60;99.90;;;;;;5073807;28;20093;-71
2021/12/09 04:05:32;;;;;;;14.50;9.50;;;1.50;99.90;;;;;;5088153;28;20040;-70
2021/12/09 04:07:58;;;;;;;16.40;9.27;;;1.50;99.90;;;;;;5093812;28;20054;-71
2021/12/09 04:10:24;;;;;;;16.00;9.63;;;1.50;99.90;;;;;;5092529;28;20369;-70
2021/12/09 04:12:50;;;;;;;17.52;9.68;;;1.60;99.90;;;;;;5093992;28;20089;-70
2021/12/09 04:15:16;;;;;;;16.88;8.93;;;1.60;99.90;;;;;;5092988;28;20170;-70
2021/12/09 04:17:41;;;;;;;13.43;8.27;;;1.60;99.90;;;;;;5093198;28;20048;-70
2021/12/09 04:20:08;;;;;;;17.38;9.00;;;1.50;99.90;;;;;;5093620;28;20037;-70
2021/12/09 04:22:34;;;;;;;15.57;9.30;;;1.60;99.90;;;;;;5093566;28;20453;-70
2021/12/09 04:25:02;;;;;;;16.85;9.57;;;1.50;99.90;;;;;;5093158;28;20039;-70
2021/12/09 04:27:28;;;;;;;17.05;9.45;;;1.50;99.90;;;;;;5093404;28;20091;-72
2021/12/09 04:29:54;;;;;;;20.90;9.60;;;1.50;99.90;;;;;;5093529;28;20068;-72
2021/12/09 04:32:20;;;;;;;21.05;9.93;;;1.50;99.90;;;;;;5093728;28;20140;-71
2021/12/09 04:34:47;;;;;;;18.85;9.57;;;1.40;99.90;;;;;;5093535;28;20040;-68
2021/12/09 04:37:13;;;;;;;17.48;9.65;;;1.40;99.90;;;;;;5093341;28;20061;-71
2021/12/09 04:39:39;;;;;;;15.30;8.73;;;1.40;99.90;;;;;;5093554;28;20063;-69
2021/12/09 04:42:06;;;;;;;19.33;9.43;;;1.40;99.90;;;;;;5093188;28;20484;-72
2021/12/09 04:44:32;;;;;;;16.67;9.20;;;1.40;99.90;;;;;;5093219;28;20043;-71
2021/12/09 04:47:00;;;;;;;16.17;8.82;;;1.40;99.90;;;;;;5092998;28;20044;-71
2021/12/09 04:49:26;;;;;;;18.85;9.40;;;1.40;99.90;;;;;;5093445;28;20039;-71
2021/12/09 04:51:52;;;;;;;15.23;8.82;;;1.40;99.90;;;;;;5093434;28;20387;-71
2021/12/09 04:54:18;;;;;;;19.08;9.68;;;1.40;99.90;;;;;;5092973;28;20425;-70
2021/12/09 04:56:43;;;;;;;14.32;8.18;;;1.40;99.90;;;;;;5092986;28;20080;-70
2021/12/09 04:59:09;;;;;;;17.42;9.27;;;1.40;99.90;;;;;;5092045;28;20082;-71
2021/12/09 05:01:35;;;;;;;16.88;9.65;;;1.40;99.90;;;;;;5093188;28;20032;-71
2021/12/09 05:04:02;;;;;;;16.20;9.00;;;1.40;99.90;;;;;;5093032;28;20040;-70
2021/12/09 05:06:29;;;;;;;17.15;9.30;;;1.40;99.90;;;;;;5093030;28;20365;-70
2021/12/09 05:08:56;;;;;;;14.73;9.15;;;1.40;99.90;;;;;;5093267;28;20078;-70
2021/12/09 05:13:54;;;;;;;16.05;9.35;;;1.30;99.90;;;;;;5093043;28;20055;-69
2021/12/09 05:16:19;;;;;;;18.15;9.20;;;1.40;99.90;;;;;;5092604;28;20051;-71
2021/12/09 05:18:45;;;;;;;21.45;9.88;;;1.30;99.90;;;;;;5092979;28;20040;-70
2021/12/09 05:21:12;;;;;;;16.73;8.43;;;1.30;99.90;;;;;;5093089;28;20044;-70
2021/12/09 05:23:40;;;;;;;18.33;9.57;;;1.30;99.90;;;;;;5092420;28;20036;-71
2021/12/09 05:26:07;;;;;;;14.82;9.07;;;1.30;99.90;;;;;;5092535;28;20115;-71
2021/12/09 05:28:36;;;;;;;19.90;9.52;;;1.30;99.90;;;;;;5096478;28;20039;-71
2021/12/09 05:33:48;;;;;;;16.98;8.95;;;1.30;99.90;;;;;;5096386;28;20488;-70
2021/12/09 05:36:15;;;;;;;21.02;9.95;;;1.30;99.90;;;;;;5076109;28;20106;-70
2021/12/09 05:38:41;;;;;;;16.88;8.68;;;1.20;99.90;;;;;;5076281;28;20049;-70
2021/12/09 05:41:08;;;;;;;17.25;9.68;;;1.20;99.90;;;;;;5076629;28;20052;-71
2021/12/09 05:43:36;;;;;;;19.80;9.40;;;1.30;99.90;;;;;;5078750;28;20044;-72
2021/12/09 05:46:03;;;;;;;18.17;9.23;;;1.30;99.90;;;;;;5095366;28;20465;-72
2021/12/09 05:48:30;;;;;;;17.58;9.18;;;1.20;99.90;;;;;;5096513;28;20051;-70
2021/12/09 05:50:56;;;;;;;17.92;10.02;;;1.20;99.90;;;;;;5088288;28;20433;-70
2021/12/09 05:53:22;;;;;;;15.90;8.90;;;1.20;99.90;;;;;;5075581;28;20090;-71
2021/12/09 05:55:48;;;;;;;19.98;9.20;;;1.30;99.90;;;;;;5075980;28;20414;-69
2021/12/09 05:58:16;;;;;;;19.65;9.57;;;1.30;99.90;;;;;;5076491;28;20036;-70
2021/12/09 06:00:42;;;;;;;15.55;9.15;;;1.30;99.90;;;;;;5074887;28;20382;-71
2021/12/09 06:03:07;;;;;;;17.48;9.70;;;1.20;99.90;;;;;;5075408;28;20124;-70
2021/12/09 06:05:34;;;;;;;18.75;9.23;;;1.30;99.90;;;;;;5075803;28;20119;-70
2021/12/09 06:08:00;;;;;;;18.77;9.32;;;1.30;99.90;;;;;;5075223;28;20097;-69
2021/12/09 06:10:26;;;;;;;18.58;9.50;;;1.30;99.90;;;;;;5074958;28;20040;-71
2021/12/09 06:12:51;;;;;;;19.92;9.23;;;1.30;99.90;;;;;;5075411;28;20047;-71
2021/12/09 06:15:17;;;;;;;16.35;9.00;;;1.30;99.90;;;;;;5077497;28;20037;-69
2021/12/09 06:17:43;;;;;;;20.33;9.32;;;1.30;99.90;;;;;;5074363;28;20071;-71
2021/12/09 06:20:09;;;;;;;15.77;9.50;;;1.30;99.90;;;;;;5075433;28;20055;-70
2021/12/09 06:22:35;;;;;;;16.48;8.50;;;1.30;99.90;;;;;;5075351;28;20032;-73
2021/12/09 06:25:00;;;;;;;18.27;9.43;;;1.30;99.90;;;;;;5084995;28;20081;-72
2021/12/09 06:27:26;;;;;;;21.67;8.43;;;1.30;99.90;;;;;;5075508;28;20044;-72
2021/12/09 06:29:52;;;;;;;19.35;9.43;;;1.30;99.90;;;;;;5075939;28;20056;-73
2021/12/09 06:32:18;;;;;;;22.80;9.75;;;1.30;99.90;;;;;;5075320;28;20051;-67
2021/12/09 06:34:43;;;;;;;18.42;9.00;;;1.30;99.90;;;;;;5083479;28;20118;-70
2021/12/09 06:37:09;;;;;;;20.90;9.52;;;1.30;99.90;;;;;;5095324;28;20050;-72
2021/12/09 06:39:35;;;;;;;16.58;9.43;;;1.40;99.90;;;;;;5095191;28;20174;-73
2021/12/09 06:42:01;;;;;;;18.85;9.63;;;1.30;99.90;;;;;;5095490;28;20120;-71
2021/12/09 06:44:27;;;;;;;19.63;9.35;;;1.30;99.90;;;;;;5094271;28;20042;-69
2021/12/09 06:46:55;;;;;;;19.98;9.38;;;1.30;99.90;;;;;;5082327;28;20044;-72
2021/12/09 06:49:22;;;;;;;17.02;8.85;;;1.30;99.90;;;;;;5091983;28;20115;-72
2021/12/09 06:51:49;;;;;;;21.25;9.20;;;1.30;99.90;;;;;;5094258;28;20040;-71
2021/12/09 06:54:15;;;;;;;16.58;8.80;;;1.30;99.90;;;;;;5092512;28;20040;-69
2021/12/09 06:56:40;;;;;;;20.13;9.23;;;1.20;99.90;;;;;;5092106;28;20047;-70
2021/12/09 06:59:06;;;;;;;16.70;9.23;;;1.30;99.90;;;;;;5083042;28;20045;-70
2021/12/09 07:01:32;;;;;;;16.58;9.20;;;1.30;99.90;;;;;;5074450;28;20055;-70
2021/12/09 07:03:57;;;;;;;17.73;8.95;;;1.30;99.90;;;;;;5075123;28;20039;-69
2021/12/09 07:06:23;;;;;;;16.42;9.70;;;1.20;99.90;;;;;;5086907;28;20048;-68
2021/12/09 07:08:52;;;;;;;18.38;8.95;;;1.30;99.90;;;;;;5073600;28;20373;-67
2021/12/09 07:11:19;;;;;;;19.60;9.45;;;1.30;99.90;;;;;;5074621;28;20046;-69
2021/12/09 07:13:46;;;;;;;19.42;9.05;;;1.30;99.90;;;;;;5074462;28;20119;-66
2021/12/09 07:16:12;;;;;;;18.17;8.77;;;1.30;99.90;;;;;;5090494;28;20044;-69
2021/12/09 07:18:38;;;;;;;20.33;9.57;;;1.20;99.90;;;;;;5079082;28;20102;-70
2021/12/09 07:21:06;;;;;;;21.20;8.70;;;1.20;99.90;;;;;;5072170;28;20037;-70
2021/12/09 07:23:32;;;;;;;19.85;9.20;;;1.30;99.90;;;;;;5072128;28;20067;-68
2021/12/09 07:25:58;;;;;;;20.13;9.90;;;1.20;99.90;;;;;;5089173;28;20036;-69
2021/12/09 07:28:24;;;;;;;16.90;8.75;;;1.20;99.90;;;;;;5091848;28;20476;-68
2021/12/09 07:30:50;;;;;;;18.17;9.05;;;1.30;99.90;;;;;;5092701;28;20040;-70
2021/12/09 07:33:16;;;;;;;16.50;9.30;;;1.30;99.90;;;;;;5091133;28;20048;-68
2021/12/09 07:35:43;;;;;;;12.88;7.93;;;1.20;99.90;;;;;;5088968;28;20047;-67
2021/12/09 07:38:09;;;;;;;19.40;8.98;;;1.20;99.90;;;;;;5094177;28;20119;-68
2021/12/09 07:40:36;;;;;;;15.65;8.75;;;1.20;99.90;;;;;;5093835;28;20177;-68
2021/12/09 07:43:03;;;;;;;18.42;8.85;;;1.20;99.90;;;;;;5093968;28;20123;-68
2021/12/09 07:45:28;;;;;;;22.40;9.50;;;1.20;99.90;;;;;;5093480;28;20054;-66
2021/12/09 07:47:54;;;;;;;20.70;8.15;;;1.20;99.90;;;;;;5077012;28;20036;-69
2021/12/09 07:50:23;;;;;;;20.25;9.38;;;1.20;99.90;;;;;;5083949;28;20047;-68
2021/12/09 07:52:51;;;;;;;18.35;9.13;;;1.20;99.90;;;;;;5093405;28;20040;-68
2021/12/09 07:55:20;;;;;;;19.25;9.00;;;1.20;99.90;;;;;;5093315;28;20346;-68
2021/12/09 07:57:45;;;;;;;22.38;8.95;;;1.20;99.90;;;;;;5094136;28;20055;-69
2021/12/09 08:00:15;;;;;;;16.33;8.73;;;1.20;99.90;;;;;;5093751;28;20036;-68
2021/12/09 08:02:45;;;;;;;16.92;8.52;;;1.20;99.90;;;;;;5093867;28;20036;-69
2021/12/09 08:05:12;;;;;;;18.05;8.73;;;1.20;99.90;;;;;;5091252;28;20040;-67
2021/12/09 08:07:41;;;;;;;18.10;8.80;;;1.20;99.90;;;;;;5073799;28;20041;-68
2021/12/09 08:10:12;;;;;;;21.65;8.93;;;1.20;99.90;;;;;;5073589;28;20032;-67
2021/12/09 08:12:38;;;;;;;18.35;8.43;;;1.20;99.90;;;;;;5073595;28;20044;-70
2021/12/09 08:15:07;;;;;;;18.80;8.77;;;1.20;99.90;;;;;;5083156;28;20097;-69
2021/12/09 08:20:00;;;;;;;16.23;8.43;;;1.30;99.90;;;;;;5093803;28;20075;-67
2021/12/09 08:22:26;;;;;;;17.20;8.43;;;1.30;99.90;;;;;;5092860;28;20068;-69
2021/12/09 08:24:55;;;;;;;19.77;8.52;;;1.30;99.90;;;;;;5082549;28;20082;-67
2021/12/09 08:27:21;;;;;;;22.63;9.13;;;1.30;99.90;;;;;;5093675;28;20135;-67
2021/12/09 08:29:47;;;;;;;17.92;8.40;;;1.30;99.90;;;;;;5093614;28;20437;-67
2021/12/09 08:32:13;;;;;;;18.73;8.82;;;1.40;99.90;;;;;;5093408;28;20046;-67
2021/12/09 08:34:39;;;;;;;13.98;8.50;;;1.40;99.90;;;;;;5093233;28;20037;-67
2021/12/09 08:37:04;;;;;;;18.23;8.50;;;1.40;99.90;;;;;;5091479;28;20415;-67
2021/12/09 08:39:30;;;;;;;18.08;8.23;;;1.50;99.90;;;;;;5093357;28;20068;-67
2021/12/09 08:41:56;;;;;;;20.42;8.90;;;1.50;99.90;;;;;;5093475;28;20036;-68
2021/12/09 08:44:22;;;;;;;14.32;7.40;;;1.60;99.90;;;;;;5092939;28;20040;-67
2021/12/09 08:46:48;;;;;;;16.38;7.60;;;1.60;99.90;;;;;;5094473;28;20123;-67
2021/12/09 08:49:13;;;;;;;16.17;8.32;;;1.60;99.90;;;;;;5093284;28;20097;-68
2021/12/09 08:51:39;;;;;;;15.85;7.75;;;1.70;99.90;;;;;;5088487;28;20036;-67
2021/12/09 08:54:06;;;;;;;13.95;6.60;;;1.70;99.90;;;;;;5091801;28;20044;-69
2021/12/09 08:56:32;;;;;;;13.90;6.95;;;1.70;99.90;;;;;;5090939;28;20067;-67
2021/12/09 08:58:58;;;;;;;14.02;6.45;;;1.70;99.90;;;;;;5083208;28;20489;-67
2021/12/09 09:01:23;;;;;;;18.17;7.35;;;1.70;99.90;;;;;;5072953;28;20040;-68
2021/12/09 09:03:49;;;;;;;17.98;7.43;;;1.80;99.90;;;;;;5076729;28;20036;-67
2021/12/09 09:06:15;;;;;;;12.75;6.55;;;1.80;99.90;;;;;;5095345;28;20040;-68
2021/12/09 09:08:40;;;;;;;15.27;7.47;;;1.80;99.90;;;;;;5096877;28;20040;-67
2021/12/09 09:11:06;;;;;;;14.32;6.95;;;1.80;99.90;;;;;;5097111;28;20127;-69
2021/12/09 09:13:32;;;;;;;15.85;6.57;;;1.80;99.90;;;;;;5097130;28;20043;-68
2021/12/09 09:15:58;;;;;;;15.98;7.28;;;1.90;99.90;;;;;;5095826;28;20040;-67
2021/12/09 09:18:23;;;;;;;12.27;6.95;;;1.90;99.90;;;;;;5092483;28;20052;-67
2021/12/09 09:20:49;;;;;;;12.88;6.80;;;1.90;99.90;;;;;;5076240;28;20040;-69
2021/12/09 09:23:19;;;;;;;14.93;7.25;;;2.00;99.90;;;;;;5076410;28;20461;-67
2021/12/09 09:25:45;;;;;;;15.60;6.82;;;2.10;99.90;;;;;;5080239;28;20473;-67
2021/12/09 09:28:12;;;;;;;15.45;7.10;;;2.10;99.90;;;;;;5076307;28;20044;-67
2021/12/09 09:30:43;;;;;;;13.30;7.00;;;2.20;99.90;;;;;;5075304;28;20506;-67
2021/12/09 09:33:13;;;;;;;17.58;7.45;;;2.30;99.90;;;;;;5076457;28;20132;-69
2021/12/09 09:35:41;;;;;;;13.88;6.68;;;2.30;99.90;;;;;;5090163;28;20137;-68
2021/12/09 09:38:07;;;;;;;14.02;6.35;;;2.30;99.90;;;;;;5096157;28;20421;-67
2021/12/09 09:40:46;;;;;;;13.45;6.10;;;2.40;99.90;;;;;;5096473;28;20064;-67
2021/12/09 09:43:29;;;;;;;12.57;6.70;;;2.40;99.90;;;;;;5096188;28;20472;-68
2021/12/09 09:45:56;;;;;;;15.65;6.65;;;2.40;99.90;;;;;;5091779;28;20032;-67
2021/12/09 09:48:22;;;;;;;15.13;6.95;;;2.40;99.90;;;;;;5096429;28;20079;-67
2021/12/09 09:50:49;;;;;;;12.95;6.75;;;2.50;99.90;;;;;;5096462;28;20036;-67
2021/12/09 09:53:16;;;;;;;12.40;6.55;;;2.50;99.90;;;;;;5096435;28;20050;-68
2021/12/09 09:55:44;;;;;;;11.70;6.57;;;2.50;99.90;;;;;;5094772;28;20369;-67
2021/12/09 09:58:09;;;;;;;14.18;6.93;;;2.50;99.90;;;;;;5086208;28;20445;-69
2021/12/09 10:00:35;;;;;;;12.45;6.78;;;2.50;99.90;;;;;;5075117;28;20040;-68
2021/12/09 10:03:03;;;;;;;18.00;6.97;;;2.50;99.90;;;;;;5075607;28;20028;-67
2021/12/09 10:05:36;;;;;;;13.95;6.15;;;2.60;99.90;;;;;;5087671;28;20071;-69
2021/12/09 10:08:03;;;;;;;13.30;6.70;;;2.60;99.90;;;;;;5096056;28;20360;-68
2021/12/09 10:10:29;;;;;;;11.20;5.82;;;2.70;99.90;;;;;;5094858;28;20086;-69
2021/12/09 10:13:03;;;;;;;15.65;7.18;;;2.70;99.90;;;;;;5095030;28;20526;-68
2021/12/09 10:15:50;;;;;;;16.00;6.55;;;2.70;99.90;;;;;;5083466;28;20063;-68
2021/12/09 10:18:38;;;;;;;14.15;6.28;;;2.70;99.90;;;;;;5074199;28;20082;-68
2021/12/09 10:21:06;;;;;;;12.98;6.35;;;2.80;99.90;;;;;;5074312;28;20102;-70
2021/12/09 10:23:45;;;;;;;14.50;6.10;;;2.80;99.90;;;;;;5075557;28;20036;-69
2021/12/09 10:26:19;;;;;;;11.73;6.40;;;2.90;99.90;;;;;;5092880;28;20131;-69
2021/12/09 10:28:54;;;;;;;15.55;6.68;;;2.90;99.90;;;;;;5095775;28;20050;-68
2021/12/09 10:31:28;;;;;;;;;;;2.80;99.90;;;;;;5096074;28;20043;-68
2021/12/09 10:34:28;;;;;;;11.70;6.32;;;2.90;99.90;;;;;;5095383;28;19916;-68
2021/12/09 10:37:15;;;;;;;12.73;6.60;;;3.00;99.90;;;;;;5071444;28;20064;-69
2021/12/09 10:40:00;;;;;;;14.57;7.35;;;3.00;99.90;;;;;;5074462;28;20381;-68
2021/12/09 10:42:30;;;;;;;14.23;6.75;;;3.00;99.90;;;;;;5074783;28;20357;-68
2021/12/09 10:45:06;;;;;;;15.65;7.38;;;3.10;99.90;;;;;;5088540;28;20036;-69
2021/12/09 10:50:18;;;;;;;12.43;6.68;;;3.20;99.90;;;;;;5089856;28;20044;-69
2021/12/09 10:52:50;;;;;;;13.05;7.00;;;3.20;99.90;;;;;;5075076;28;20051;-68
2021/12/09 10:55:29;;;;;;;14.48;7.40;;;3.20;99.90;;;;;;5084664;28;20072;-68
2021/12/09 10:58:11;;;;;;;15.48;7.90;;;3.30;99.90;;;;;;5094910;28;20044;-69
2021/12/09 11:00:52;;;;;;;12.27;7.43;;;3.30;99.90;;;;;;5080642;28;20044;-69
2021/12/09 11:03:17;;;;;;;16.42;8.32;;;3.30;99.90;;;;;;5075043;28;20036;-69
2021/12/09 11:05:51;;;;;;;15.45;8.38;;;3.40;99.90;;;;;;5088294;28;20067;-69
2021/12/09 11:08:43;;;;;;;20.30;8.38;;;3.40;99.90;;;;;;5094749;28;20053;-68
2021/12/09 11:11:09;;;;;;;15.18;8.13;;;3.40;99.90;;;;;;5081799;28;20086;-67
2021/12/09 11:13:39;;;;;;;20.63;8.95;;;3.40;99.90;;;;;;5073950;28;20313;-68
2021/12/09 11:16:06;;;;;;;18.17;8.43;;;3.50;99.90;;;;;;5076314;28;20036;-67
2021/12/09 11:18:43;;;;;;;15.30;8.57;;;3.50;99.90;;;;;;5074033;28;20139;-70
2021/12/09 11:21:22;;;;;;;15.60;8.57;;;3.50;99.90;;;;;;5073294;28;20075;-69
2021/12/09 11:23:51;;;;;;;20.45;9.80;;;3.50;99.90;;;;;;5073900;28;20044;-69
2021/12/09 11:26:24;;;;;;;18.33;9.60;;;3.50;99.90;;;;;;5091945;28;20036;-69
2021/12/09 11:28:58;;;;;;;16.77;8.60;;;3.50;99.90;;;;;;5094585;28;20118;-69
2021/12/09 11:31:29;;;;;;;20.17;10.63;;;3.50;99.90;;;;;;5094282;28;20166;-68
2021/12/09 11:34:09;;;;;;;16.58;9.10;;;3.50;99.90;;;;;;5094485;28;20111;-69
2021/12/09 11:36:46;;;;;;;17.77;9.70;;;3.60;99.90;;;;;;5092727;28;20043;-68
2021/12/09 11:39:23;;;;;;;19.63;9.48;;;3.60;99.90;;;;;;5094261;28;20044;-68
2021/12/09 11:41:49;;;;;;;18.95;10.38;;;3.60;99.90;;;;;;5094292;28;20028;-68
2021/12/09 11:44:16;;;;;;;21.75;11.07;;;3.60;99.90;;;;;;5093641;28;20461;-69
2021/12/09 11:46:44;;;;;;;21.00;10.32;;;3.60;99.90;;;;;;5093642;28;20075;-68
2021/12/09 11:49:11;;;;;;;19.33;11.57;;;3.70;99.90;;;;;;5094424;28;20040;-68
2021/12/09 11:51:38;;;;;;;25.30;11.48;;;3.70;99.90;;;;;;5094221;28;20036;-69
2021/12/09 11:54:06;;;;;;;24.77;10.98;;;3.70;99.90;;;;;;5094081;28;20097;-69
2021/12/09 12:07:42;;;;;;;19.67;10.55;;;3.80;99.90;;;;;;5093901;28;20047;-68
2021/12/09 12:13:02;;;;;;;23.83;12.03;;;3.80;99.90;;;;;;5093765;28;20499;-69
2021/12/09 12:24:18;;;;;;;19.55;11.48;;;3.90;99.90;;;;;;5093050;28;20040;-69
2021/12/09 12:35:04;;;;;;;25.00;12.15;;;4.00;99.90;;;;;;5075835;28;20052;-68
2021/12/09 12:38:01;;;;;;;20.55;12.18;;;4.00;99.90;;;;;;5096600;28;20445;-68
2021/12/09 12:40:40;;;;;;;21.65;12.27;;;4.00;99.90;;;;;;5097542;28;20051;-68
2021/12/09 12:43:11;;;;;;;21.75;12.07;;;4.10;99.90;;;;;;5097563;28;20040;-68
2021/12/09 12:48:49;;;;;;;23.05;11.88;;;4.10;99.90;;;;;;5097668;28;20115;-69
2021/12/09 12:51:30;;;;;;;21.50;12.15;;;4.20;99.90;;;;;;5097688;28;20101;-70
2021/12/09 12:54:18;;;;;;;22.90;12.65;;;4.20;99.90;;;;;;5097597;28;20101;-68
2021/12/09 12:56:55;;;;;;;22.63;12.05;;;4.20;99.90;;;;;;5076911;28;20047;-68
2021/12/09 12:59:36;;;;;;;20.98;12.57;;;4.20;99.90;;;;;;5089370;28;20042;-68
2021/12/09 13:07:42;;;;;;;19.08;11.20;;;4.20;99.90;;;;;;5097257;28;20036;-69
2021/12/09 13:13:32;;;;;;;20.42;11.48;;;4.20;99.90;;;;;;5093747;28;20079;-68
2021/12/09 13:16:14;;;;;;;23.60;11.43;;;4.20;99.90;;;;;;5096262;28;20115;-68
2021/12/09 13:19:18;;;;;;;26.67;12.40;;;4.20;99.90;;;;;;5096724;28;20043;-69
2021/12/09 13:21:54;;;;;;;22.88;11.32;;;4.20;99.90;;;;;;5096377;28;20040;-68
2021/12/09 13:24:25;;;;;;;19.73;11.25;;;4.20;99.90;;;;;;5096355;28;20111;-69
2021/12/09 13:27:07;;;;;;;17.20;10.40;;;4.30;99.90;;;;;;5096756;28;20044;-70
2021/12/09 13:29:44;;;;;;;18.35;10.82;;;4.20;99.90;;;;;;5097007;28;20059;-71
2021/12/09 13:33:10;;;;;;;19.95;10.30;;;4.30;99.90;;;;;;5096407;28;20040;-68
2021/12/09 13:49:41;;;;;;;;;;;4.30;99.90;;;;;;5076097;28;20044;-70
2021/12/09 13:55:08;;;;;;;19.65;10.75;;;4.30;99.90;;;;;;5082389;28;20040;-69
2021/12/09 13:57:41;;;;;;;23.25;11.32;;;4.30;99.90;;;;;;5095899;28;20048;-69
2021/12/09 14:00:33;;;;;;;19.27;10.00;;;4.30;99.90;;;;;;5096039;28;20068;-69
2021/12/09 14:03:08;;;;;;;18.67;9.93;;;4.30;99.90;;;;;;5086951;28;20048;-68
2021/12/09 14:05:46;;;;;;;24.63;11.05;;;4.30;99.90;;;;;;5095303;28;20035;-69